Time;durP1;ratioP1;P1;durP2;ratioP2;P2;SDS_P1;SDS_P2;PMS_P1;PMS_P2;Temp;Humidity;BMP_temperature;BMP_pressure;BME280_temperature;BME280_humidity;BME280_pressure;Samples;Min_cycle;Max_cycle;Signal;HPM_P1;HPM_P2
2021/09/04 00:02:16;;;;;;;;;22.67;21.00;;;;;;;;5013722;28;45472;-85
2021/09/04 00:04:41;;;;;;;;;23.00;21.00;;;;;;;;4997117;28;47245;-85
2021/09/04 00:07:07;;;;;;;;;21.50;20.25;;;;;;;;5015552;28;45419;-85
2021/09/04 00:09:33;;;;;;;;;21.75;20.00;;;;;;;;5020823;28;45463;-85
2021/09/04 00:11:58;;;;;;;;;20.75;19.50;;;;;;;;4998804;28;45419;-85
2021/09/04 00:14:23;;;;;;;;;17.25;17.25;;;;;;;;5019987;28;45415;-85
2021/09/04 00:16:49;;;;;;;;;24.33;21.33;;;;;;;;5013835;28;45385;-85
2021/09/04 00:19:14;;;;;;;;;26.25;20.00;;;;;;;;5013393;28;45304;-85
2021/09/04 00:21:39;;;;;;;;;22.00;19.00;;;;;;;;5020540;28;46032;-85
2021/09/04 00:24:04;;;;;;;;;21.00;17.67;;;;;;;;5021951;28;46165;-85
2021/09/04 00:26:30;;;;;;;;;22.75;20.50;;;;;;;;5015593;28;45663;-85
2021/09/04 00:28:55;;;;;;;;;19.67;19.00;;;;;;;;5020918;28;45372;-85
2021/09/04 00:31:20;;;;;;;;;20.67;18.67;;;;;;;;5015403;28;45518;-85
2021/09/04 00:33:45;;;;;;;;;22.00;20.50;;;;;;;;5021407;28;47071;-85
2021/09/04 00:36:10;;;;;;;;;20.33;19.33;;;;;;;;5022277;28;45396;-86
2021/09/04 00:38:36;;;;;;;;;21.00;18.33;;;;;;;;5019436;28;45678;-85
2021/09/04 00:41:01;;;;;;;;;17.25;16.00;;;;;;;;5014353;28;45642;-85
2021/09/04 00:43:26;;;;;;;;;23.33;19.33;;;;;;;;5020398;28;47314;-85
2021/09/04 00:45:51;;;;;;;;;23.00;19.67;;;;;;;;5020259;28;45527;-85
2021/09/04 00:48:17;;;;;;;;;23.25;18.75;;;;;;;;5019313;28;45406;-85
2021/09/04 00:50:42;;;;;;;;;24.67;21.00;;;;;;;;5020044;28;45477;-86
2021/09/04 00:53:07;;;;;;;;;21.25;19.75;;;;;;;;5027439;28;46220;-85
2021/09/04 00:55:33;;;;;;;;;25.50;20.50;;;;;;;;5019506;28;45910;-85
2021/09/04 00:57:58;;;;;;;;;19.25;17.25;;;;;;;;5019560;28;45541;-85
2021/09/04 01:00:23;;;;;;;;;19.25;17.50;;;;;;;;5019656;28;45466;-85
2021/09/04 01:02:49;;;;;;;;;22.25;19.00;;;;;;;;5020932;28;46057;-86
2021/09/04 01:05:14;;;;;;;;;18.75;16.75;;;;;;;;5019413;28;45474;-85
2021/09/04 01:07:40;;;;;;;;;23.00;19.25;;;;;;;;5014755;28;45595;-86
2021/09/04 01:10:08;;;;;;;;;21.25;20.75;;;;;;;;5018322;28;45715;-86
2021/09/04 01:12:33;;;;;;;;;17.25;15.50;;;;;;;;5021489;28;46106;-86
2021/09/04 01:14:58;;;;;;;;;22.75;17.25;;;;;;;;5019486;28;45315;-86
2021/09/04 01:17:25;;;;;;;;;21.00;20.50;;;;;;;;5013546;28;45246;-86
2021/09/04 01:19:50;;;;;;;;;24.25;18.75;;;;;;;;5017935;28;45598;-86
2021/09/04 01:22:16;;;;;;;;;17.25;16.50;;;;;;;;5024545;28;48127;-86
2021/09/04 01:24:42;;;;;;;;;18.50;18.50;;;;;;;;5024203;28;45224;-86
2021/09/04 01:27:07;;;;;;;;;24.75;19.75;;;;;;;;5017730;28;45385;-86
2021/09/04 01:29:32;;;;;;;;;20.50;20.50;;;;;;;;5019584;28;45300;-86
2021/09/04 01:31:58;;;;;;;;;21.00;20.00;;;;;;;;5007954;28;45815;-86
2021/09/04 01:34:23;;;;;;;;;19.00;18.00;;;;;;;;5020505;28;45679;-86
2021/09/04 01:36:48;;;;;;;;;20.67;19.00;;;;;;;;5010947;28;45497;-86
2021/09/04 01:39:13;;;;;;;;;24.25;19.00;;;;;;;;5019666;28;45531;-84
2021/09/04 01:41:40;;;;;;;;;19.33;17.33;;;;;;;;5026252;28;46889;-84
2021/09/04 01:44:06;;;;;;;;;18.25;17.50;;;;;;;;5031921;28;45378;-84
2021/09/04 01:46:33;;;;;;;;;21.50;17.00;;;;;;;;5035640;28;45211;-84
2021/09/04 01:48:58;;;;;;;;;22.75;18.25;;;;;;;;5022887;28;45688;-83
2021/09/04 01:51:23;;;;;;;;;22.25;17.75;;;;;;;;5017219;28;47097;-84
2021/09/04 01:53:49;;;;;;;;;21.25;19.50;;;;;;;;5021240;28;45467;-84
2021/09/04 01:56:14;;;;;;;;;19.75;18.25;;;;;;;;5020194;28;45419;-84
2021/09/04 01:58:39;;;;;;;;;19.50;18.00;;;;;;;;5019442;28;45557;-84
2021/09/04 02:01:05;;;;;;;;;23.25;20.50;;;;;;;;5018925;28;48063;-84
2021/09/04 02:03:31;;;;;;;;;19.75;18.00;;;;;;;;5021312;28;45296;-83
2021/09/04 02:05:56;;;;;;;;;26.67;21.67;;;;;;;;5016376;28;45523;-84
2021/09/04 02:08:21;;;;;;;;;22.75;18.75;;;;;;;;5020486;28;45213;-85
2021/09/04 02:10:46;;;;;;;;;21.67;21.33;;;;;;;;5022191;28;45354;-85
2021/09/04 02:13:12;;;;;;;;;18.75;17.25;;;;;;;;5019500;28;45201;-84
2021/09/04 02:15:37;;;;;;;;;21.25;17.00;;;;;;;;5018770;28;45436;-85
2021/09/04 02:18:02;;;;;;;;;21.33;17.33;;;;;;;;5020517;28;45555;-85
2021/09/04 02:20:27;;;;;;;;;24.50;19.50;;;;;;;;5018742;28;45482;-85
2021/09/04 02:22:53;;;;;;;;;17.75;16.25;;;;;;;;5000042;28;45843;-85
2021/09/04 02:25:18;;;;;;;;;16.33;16.33;;;;;;;;4996613;28;45530;-85
2021/09/04 02:27:43;;;;;;;;;19.67;17.33;;;;;;;;5012713;28;45775;-85
2021/09/04 02:30:09;;;;;;;;;16.75;15.75;;;;;;;;4999343;28;47679;-85
2021/09/04 02:32:34;;;;;;;;;20.75;19.00;;;;;;;;5002372;28;46128;-85
2021/09/04 02:35:00;;;;;;;;;18.50;17.00;;;;;;;;5018335;28;45410;-85
2021/09/04 02:37:25;;;;;;;;;26.25;18.50;;;;;;;;5019007;28;45381;-85
2021/09/04 02:39:51;;;;;;;;;22.00;16.00;;;;;;;;4995480;28;48072;-85
2021/09/04 02:42:16;;;;;;;;;21.00;18.50;;;;;;;;4999477;28;45980;-85
2021/09/04 02:44:41;;;;;;;;;18.50;17.00;;;;;;;;5018417;28;45408;-85
2021/09/04 02:47:07;;;;;;;;;18.00;15.50;;;;;;;;5010133;28;45490;-85
2021/09/04 02:49:32;;;;;;;;;17.50;16.75;;;;;;;;5018682;28;45428;-85
2021/09/04 02:51:57;;;;;;;;;22.50;17.00;;;;;;;;5014891;28;45187;-85
2021/09/04 02:54:22;;;;;;;;;22.75;17.00;;;;;;;;5023019;28;45373;-85
2021/09/04 02:56:48;;;;;;;;;25.00;19.33;;;;;;;;5018364;28;47415;-85
2021/09/04 02:59:13;;;;;;;;;23.33;19.00;;;;;;;;5002536;28;48129;-85
2021/09/04 03:01:38;;;;;;;;;19.00;19.00;;;;;;;;5002569;28;45804;-85
2021/09/04 03:04:03;;;;;;;;;20.33;17.00;;;;;;;;5018834;28;45411;-85
2021/09/04 03:06:29;;;;;;;;;19.25;17.75;;;;;;;;5015813;28;45014;-85
2021/09/04 03:08:54;;;;;;;;;16.67;16.67;;;;;;;;5003818;28;47167;-84
2021/09/04 03:11:20;;;;;;;;;17.50;15.25;;;;;;;;5018831;28;45338;-84
2021/09/04 03:13:45;;;;;;;;;18.50;16.50;;;;;;;;5003259;28;45419;-84
2021/09/04 03:16:11;;;;;;;;;19.00;17.67;;;;;;;;5001831;28;45583;-84
2021/09/04 03:18:37;;;;;;;;;16.50;14.00;;;;;;;;5016788;28;45792;-84
2021/09/04 03:21:02;;;;;;;;;20.00;15.00;;;;;;;;5013665;28;45567;-84
2021/09/04 03:23:27;;;;;;;;;19.00;15.00;;;;;;;;5019770;28;45375;-84
2021/09/04 03:25:52;;;;;;;;;23.33;19.67;;;;;;;;5014628;28;45494;-84
2021/09/04 03:28:18;;;;;;;;;18.00;16.50;;;;;;;;5019335;28;45370;-84
2021/09/04 03:30:43;;;;;;;;;16.50;15.50;;;;;;;;5014336;28;45260;-84
2021/09/04 03:33:08;;;;;;;;;15.67;14.33;;;;;;;;5019380;28;45515;-84
2021/09/04 03:35:33;;;;;;;;;17.33;17.33;;;;;;;;5001330;28;45463;-86
2021/09/04 03:37:58;;;;;;;;;19.00;16.33;;;;;;;;5020382;28;46435;-85
2021/09/04 03:40:24;;;;;;;;;16.67;14.67;;;;;;;;5020662;28;45364;-84
2021/09/04 03:42:49;;;;;;;;;15.75;15.00;;;;;;;;5000201;28;45568;-85
2021/09/04 03:45:14;;;;;;;;;20.33;19.00;;;;;;;;5023240;28;45420;-85
2021/09/04 03:47:39;;;;;;;;;19.50;14.25;;;;;;;;5024679;28;46460;-85
2021/09/04 03:50:05;;;;;;;;;17.33;16.00;;;;;;;;5021882;28;45466;-85
2021/09/04 03:52:30;;;;;;;;;18.75;16.50;;;;;;;;5004879;28;45450;-85
2021/09/04 03:54:55;;;;;;;;;20.25;16.50;;;;;;;;5009151;28;45390;-84
2021/09/04 03:57:20;;;;;;;;;28.50;17.00;;;;;;;;5022644;28;45383;-85
2021/09/04 03:59:46;;;;;;;;;15.33;13.00;;;;;;;;5024150;28;45449;-85
2021/09/04 04:02:11;;;;;;;;;16.67;16.00;;;;;;;;5026299;28;45400;-85
2021/09/04 04:04:36;;;;;;;;;20.75;20.00;;;;;;;;5025005;28;45380;-85
2021/09/04 04:07:02;;;;;;;;;20.00;16.00;;;;;;;;5023293;28;46483;-85
2021/09/04 04:09:27;;;;;;;;;21.00;15.75;;;;;;;;5026383;28;45408;-85
2021/09/04 04:11:52;;;;;;;;;21.67;18.67;;;;;;;;5021643;28;45511;-85
2021/09/04 04:14:17;;;;;;;;;19.33;18.33;;;;;;;;5007385;28;45463;-85
2021/09/04 04:16:42;;;;;;;;;19.50;16.50;;;;;;;;5002134;28;47247;-85
2021/09/04 04:19:08;;;;;;;;;23.33;18.33;;;;;;;;5024943;28;45362;-85
2021/09/04 04:21:33;;;;;;;;;21.33;19.33;;;;;;;;5024672;28;45383;-85
2021/09/04 04:23:58;;;;;;;;;21.25;17.25;;;;;;;;5025596;28;45135;-85
2021/09/04 04:26:24;;;;;;;;;23.25;21.50;;;;;;;;5024840;28;45760;-85
2021/09/04 04:28:49;;;;;;;;;20.25;16.25;;;;;;;;5032293;28;45406;-85
2021/09/04 04:31:14;;;;;;;;;22.00;17.00;;;;;;;;5016382;28;45305;-85
2021/09/04 04:33:39;;;;;;;;;22.33;18.67;;;;;;;;5044982;28;45225;-85
2021/09/04 04:36:05;;;;;;;;;20.00;17.67;;;;;;;;5040038;28;45397;-85
2021/09/04 04:38:30;;;;;;;;;22.33;19.00;;;;;;;;5036879;28;45159;-84
2021/09/04 04:40:55;;;;;;;;;19.67;17.67;;;;;;;;5019809;28;45361;-84
2021/09/04 04:43:20;;;;;;;;;24.33;20.67;;;;;;;;5025258;28;45278;-84
2021/09/04 04:45:46;;;;;;;;;23.67;20.00;;;;;;;;5018958;28;45377;-84
2021/09/04 04:48:11;;;;;;;;;23.25;19.00;;;;;;;;5018072;28;45351;-84
2021/09/04 04:50:36;;;;;;;;;18.00;17.00;;;;;;;;5016993;28;45403;-84
2021/09/04 04:53:01;;;;;;;;;18.33;16.00;;;;;;;;5020774;28;45309;-84
2021/09/04 04:55:27;;;;;;;;;22.50;21.00;;;;;;;;5034284;28;46626;-85
2021/09/04 04:57:52;;;;;;;;;19.75;16.50;;;;;;;;5018157;28;45751;-84
2021/09/04 05:00:17;;;;;;;;;18.67;18.67;;;;;;;;5017896;28;45292;-84
2021/09/04 05:02:43;;;;;;;;;24.75;20.50;;;;;;;;5003984;28;45641;-84
2021/09/04 05:05:08;;;;;;;;;19.00;18.33;;;;;;;;5017632;28;46325;-85
2021/09/04 05:07:34;;;;;;;;;26.25;19.25;;;;;;;;5002740;28;45402;-85
2021/09/04 05:09:59;;;;;;;;;24.75;19.75;;;;;;;;5004635;28;45468;-84
2021/09/04 05:12:24;;;;;;;;;18.00;17.00;;;;;;;;5007481;28;45450;-84
2021/09/04 05:14:50;;;;;;;;;18.67;16.33;;;;;;;;5022895;28;45732;-84
2021/09/04 05:17:15;;;;;;;;;22.67;20.33;;;;;;;;5003360;28;45404;-84
2021/09/04 05:19:40;;;;;;;;;20.75;17.75;;;;;;;;5020685;28;45418;-84
2021/09/04 05:22:05;;;;;;;;;18.67;18.00;;;;;;;;5012473;28;45378;-84
2021/09/04 05:24:31;;;;;;;;;23.67;19.67;;;;;;;;5021129;28;45475;-84
2021/09/04 05:26:56;;;;;;;;;23.33;21.67;;;;;;;;5001801;28;45570;-84
2021/09/04 05:29:21;;;;;;;;;22.00;21.33;;;;;;;;5003574;28;45577;-84
2021/09/04 05:31:46;;;;;;;;;26.33;21.00;;;;;;;;5013237;28;45676;-84
2021/09/04 05:34:11;;;;;;;;;19.33;19.33;;;;;;;;5017791;28;46404;-84
2021/09/04 05:36:37;;;;;;;;;23.33;19.00;;;;;;;;5015161;28;45369;-84
2021/09/04 05:39:02;;;;;;;;;22.33;19.67;;;;;;;;5003121;28;45450;-85
2021/09/04 05:41:27;;;;;;;;;26.75;23.25;;;;;;;;5013248;28;45430;-85
2021/09/04 05:43:52;;;;;;;;;24.33;18.67;;;;;;;;5021056;28;46228;-85
2021/09/04 05:46:18;;;;;;;;;22.67;21.00;;;;;;;;5002731;28;45783;-85
2021/09/04 05:48:43;;;;;;;;;23.33;20.67;;;;;;;;5003600;28;45355;-85
2021/09/04 05:51:08;;;;;;;;;23.00;21.00;;;;;;;;5002331;28;45494;-85
2021/09/04 05:53:33;;;;;;;;;23.50;21.75;;;;;;;;5002944;28;48491;-85
2021/09/04 05:55:59;;;;;;;;;21.50;20.25;;;;;;;;5018818;28;45496;-85
2021/09/04 05:58:24;;;;;;;;;23.25;21.75;;;;;;;;5022246;28;45321;-85
2021/09/04 06:00:51;;;;;;;;;21.75;17.75;;;;;;;;5019088;28;45323;-85
2021/09/04 06:03:16;;;;;;;;;28.00;24.75;;;;;;;;5019759;28;45440;-85
2021/09/04 06:05:41;;;;;;;;;21.00;18.67;;;;;;;;5016863;28;45454;-84
2021/09/04 06:08:06;;;;;;;;;20.67;19.67;;;;;;;;4997628;28;45328;-84
2021/09/04 06:10:31;;;;;;;;;27.00;20.33;;;;;;;;5018419;28;45595;-84
2021/09/04 06:12:57;;;;;;;;;25.67;21.67;;;;;;;;5002095;28;47207;-85
2021/09/04 06:15:22;;;;;;;;;25.00;22.00;;;;;;;;4999451;28;46113;-84
2021/09/04 06:17:47;;;;;;;;;23.67;22.00;;;;;;;;5014367;28;45328;-83
2021/09/04 06:20:12;;;;;;;;;28.00;23.33;;;;;;;;5017719;28;45538;-83
2021/09/04 06:22:37;;;;;;;;;27.00;23.33;;;;;;;;5012802;28;45348;-84
2021/09/04 06:25:03;;;;;;;;;22.33;21.33;;;;;;;;5017568;28;45406;-84
2021/09/04 06:27:28;;;;;;;;;27.00;22.50;;;;;;;;5014045;28;45461;-84
2021/09/04 06:29:54;;;;;;;;;26.00;23.00;;;;;;;;5018005;28;45504;-84
2021/09/04 06:32:19;;;;;;;;;29.67;23.00;;;;;;;;5018048;28;46147;-84
2021/09/04 06:34:44;;;;;;;;;15.67;12.67;;;;;;;;5018606;28;45445;-84
2021/09/04 06:37:09;;;;;;;;;26.67;21.67;;;;;;;;5013041;28;45392;-84
2021/09/04 06:39:35;;;;;;;;;23.75;22.50;;;;;;;;5019361;28;45392;-84
2021/09/04 06:42:00;;;;;;;;;27.33;26.00;;;;;;;;5018142;28;45529;-84
2021/09/04 06:44:25;;;;;;;;;25.00;21.00;;;;;;;;5024173;28;45360;-84
2021/09/04 06:46:51;;;;;;;;;26.50;22.00;;;;;;;;5019018;28;45931;-86
2021/09/04 06:49:16;;;;;;;;;28.75;26.25;;;;;;;;5020069;28;45394;-85
2021/09/04 06:51:42;;;;;;;;;30.25;25.75;;;;;;;;5016509;28;46477;-85
2021/09/04 06:54:07;;;;;;;;;35.00;30.50;;;;;;;;5010576;28;45320;-85
2021/09/04 06:56:32;;;;;;;;;33.25;29.75;;;;;;;;5014037;28;45415;-86
2021/09/04 06:58:57;;;;;;;;;34.67;26.67;;;;;;;;5017785;28;45407;-86
2021/09/04 07:01:23;;;;;;;;;33.50;26.50;;;;;;;;5009906;28;46605;-85
2021/09/04 07:03:48;;;;;;;;;25.50;24.50;;;;;;;;5001048;28;45525;-86
2021/09/04 07:06:13;;;;;;;;;31.00;26.33;;;;;;;;5019080;28;45388;-86
2021/09/04 07:08:38;;;;;;;;;31.00;26.00;;;;;;;;5019224;28;45566;-84
2021/09/04 07:11:04;;;;;;;;;28.00;25.75;;;;;;;;5014385;28;45387;-84
2021/09/04 07:13:29;;;;;;;;;30.50;26.00;;;;;;;;5014741;28;45427;-84
2021/09/04 07:15:54;;;;;;;;;27.75;26.50;;;;;;;;5014991;28;45403;-84
2021/09/04 07:18:23;;;;;;;;;29.67;27.33;;;;;;;;5018700;28;45429;-84
2021/09/04 07:20:49;;;;;;;;;25.00;24.50;;;;;;;;5024192;28;45470;-84
2021/09/04 07:23:14;;;;;;;;;33.00;28.75;;;;;;;;5027551;28;45373;-84
2021/09/04 07:25:40;;;;;;;;;31.50;25.50;;;;;;;;5032414;28;44811;-84
2021/09/04 07:28:06;;;;;;;;;24.33;23.33;;;;;;;;5006985;28;45551;-84
2021/09/04 07:30:31;;;;;;;;;32.25;29.75;;;;;;;;5023175;28;45530;-83
2021/09/04 07:32:57;;;;;;;;;34.00;29.75;;;;;;;;5007278;28;45494;-83
2021/09/04 07:35:22;;;;;;;;;26.67;24.67;;;;;;;;5015685;28;45680;-83
2021/09/04 07:37:47;;;;;;;;;32.67;29.33;;;;;;;;5015276;28;45383;-84
2021/09/04 07:40:13;;;;;;;;;32.67;28.00;;;;;;;;4998876;28;47481;-84
2021/09/04 07:42:38;;;;;;;;;26.00;25.50;;;;;;;;5018514;28;45630;-84
2021/09/04 07:45:03;;;;;;;;;32.50;30.50;;;;;;;;4998626;28;45598;-84
2021/09/04 07:47:29;;;;;;;;;37.00;31.25;;;;;;;;5017932;28;45330;-84
2021/09/04 07:49:54;;;;;;;;;34.33;31.00;;;;;;;;5018340;28;45604;-84
2021/09/04 07:52:19;;;;;;;;;37.67;32.67;;;;;;;;5015437;28;45301;-84
2021/09/04 07:54:44;;;;;;;;;35.33;31.33;;;;;;;;5000271;28;45463;-85
2021/09/04 07:57:09;;;;;;;;;37.00;32.00;;;;;;;;4997841;28;45317;-84
2021/09/04 07:59:35;;;;;;;;;36.67;32.33;;;;;;;;5013198;28;45601;-84
2021/09/04 08:02:00;;;;;;;;;41.33;35.33;;;;;;;;5010288;28;45447;-84
2021/09/04 08:04:25;;;;;;;;;37.00;32.33;;;;;;;;5014606;28;45586;-85
2021/09/04 08:06:50;;;;;;;;;39.33;32.33;;;;;;;;5012090;28;45380;-87
2021/09/04 08:09:15;;;;;;;;;32.00;30.00;;;;;;;;4986132;28;47009;-85
2021/09/04 08:11:41;;;;;;;;;39.67;32.00;;;;;;;;4995826;28;45443;-85
2021/09/04 08:14:06;;;;;;;;;37.50;31.75;;;;;;;;5001524;28;46279;-85
2021/09/04 08:16:31;;;;;;;;;35.00;29.25;;;;;;;;5012141;28;45588;-85
2021/09/04 08:18:57;;;;;;;;;39.00;30.00;;;;;;;;5011537;28;46472;-86
2021/09/04 08:21:22;;;;;;;;;32.75;30.00;;;;;;;;5000185;28;45704;-86
2021/09/04 08:23:47;;;;;;;;;33.00;27.33;;;;;;;;5016570;28;45458;-88
2021/09/04 08:26:12;;;;;;;;;31.75;28.75;;;;;;;;5007530;28;45305;-89
2021/09/04 08:28:38;;;;;;;;;34.33;32.00;;;;;;;;5008735;28;45547;-86
2021/09/04 08:31:03;;;;;;;;;38.67;33.00;;;;;;;;5010862;28;47205;-86
2021/09/04 08:33:28;;;;;;;;;35.50;27.50;;;;;;;;5018774;28;45458;-86
2021/09/04 08:35:53;;;;;;;;;31.75;30.00;;;;;;;;5003173;28;45591;-86
2021/09/04 08:38:19;;;;;;;;;32.00;29.25;;;;;;;;5019923;28;46212;-86
2021/09/04 08:40:46;;;;;;;;;33.25;29.75;;;;;;;;5018844;28;45350;-86
2021/09/04 08:43:11;;;;;;;;;32.50;26.75;;;;;;;;5013934;28;45445;-87
2021/09/04 08:45:36;;;;;;;;;32.00;29.50;;;;;;;;5016460;28;45440;-87
2021/09/04 08:48:02;;;;;;;;;37.25;31.25;;;;;;;;5004746;28;46902;-88
2021/09/04 08:50:27;;;;;;;;;32.75;29.00;;;;;;;;5008736;28;45795;-86
2021/09/04 08:52:53;;;;;;;;;28.25;26.50;;;;;;;;5004792;28;45544;-87
2021/09/04 08:55:19;;;;;;;;;34.00;29.25;;;;;;;;5018423;28;45392;-87
2021/09/04 08:57:48;;;;;;;;;30.50;27.00;;;;;;;;5008030;28;48048;-87
2021/09/04 09:00:24;;;;;;;;;30.00;27.75;;;;;;;;5000586;28;45752;-88
2021/09/04 09:02:50;;;;;;;;;28.00;25.75;;;;;;;;5018730;28;45378;-87
2021/09/04 09:05:15;;;;;;;;;30.25;28.25;;;;;;;;5001529;28;45473;-88
2021/09/04 09:07:41;;;;;;;;;36.00;29.00;;;;;;;;5000248;28;47567;-88
2021/09/04 09:10:22;;;;;;;;;32.25;28.00;;;;;;;;4997161;28;45629;-88
2021/09/04 09:12:47;;;;;;;;;29.50;25.75;;;;;;;;5016274;28;45669;-87
2021/09/04 09:15:25;;;;;;;;;26.25;23.75;;;;;;;;5021921;28;45476;-88
2021/09/04 09:17:57;;;;;;;;;29.75;28.25;;;;;;;;4999606;28;46914;-90
2021/09/04 09:20:23;;;;;;;;;26.50;25.00;;;;;;;;5008548;28;45720;-95
2021/09/04 09:22:48;;;;;;;;;27.50;25.75;;;;;;;;5007745;28;45363;-92
2021/09/04 09:25:15;;;;;;;;;22.75;21.75;;;;;;;;5007999;28;45859;-91
2021/09/04 09:28:01;;;;;;;;;25.75;22.00;;;;;;;;5003137;28;46877;-90
2021/09/04 09:30:45;;;;;;;;;26.50;24.50;;;;;;;;5025793;28;45428;-95
2021/09/04 09:33:12;;;;;;;;;23.25;21.25;;;;;;;;5001958;28;45358;-96
2021/09/04 09:35:37;;;;;;;;;26.00;20.00;;;;;;;;5008639;28;45490;-89
2021/09/04 09:38:03;;;;;;;;;27.67;24.00;;;;;;;;5020636;28;45544;-88
2021/09/04 09:40:29;;;;;;;;;20.75;20.00;;;;;;;;4999651;28;45491;-88
2021/09/04 09:42:54;;;;;;;;;21.25;17.75;;;;;;;;5003187;28;45308;-89
2021/09/04 09:45:20;;;;;;;;;22.75;21.75;;;;;;;;5001008;28;45850;-88
2021/09/04 09:47:49;;;;;;;;;21.25;20.25;;;;;;;;5016835;28;45366;-89
2021/09/04 09:50:15;;;;;;;;;22.75;21.75;;;;;;;;5018749;28;45520;-88
2021/09/04 09:52:40;;;;;;;;;18.25;18.25;;;;;;;;5008034;28;45680;-89
2021/09/04 09:55:06;;;;;;;;;20.25;17.75;;;;;;;;5002883;28;45383;-89
2021/09/04 09:57:32;;;;;;;;;18.25;17.00;;;;;;;;5029677;28;46619;-91
2021/09/04 09:59:57;;;;;;;;;26.25;23.25;;;;;;;;5028710;28;44959;-89
2021/09/04 10:02:23;;;;;;;;;20.50;20.50;;;;;;;;5016118;28;45358;-88
2021/09/04 10:04:49;;;;;;;;;20.50;17.50;;;;;;;;5002043;28;45656;-87
2021/09/04 10:07:16;;;;;;;;;17.25;16.75;;;;;;;;4997171;28;48298;-89
2021/09/04 10:09:41;;;;;;;;;26.50;24.25;;;;;;;;5002411;28;45317;-88
2021/09/04 10:12:07;;;;;;;;;14.50;12.00;;;;;;;;5004118;28;45413;-88
2021/09/04 10:14:33;;;;;;;;;14.50;14.50;;;;;;;;5003206;28;45564;-89
2021/09/04 10:17:00;;;;;;;;;13.75;13.00;;;;;;;;5001655;28;47719;-89
2021/09/04 10:19:26;;;;;;;;;17.50;16.50;;;;;;;;5008939;28;45690;-89
2021/09/04 10:22:03;;;;;;;;;27.50;26.00;;;;;;;;5015135;28;45734;-89
2021/09/04 10:24:54;;;;;;;;;19.75;19.75;;;;;;;;5016564;28;46169;-89
2021/09/04 10:27:31;;;;;;;;;26.00;24.75;;;;;;;;5012004;28;45453;-89
2021/09/04 10:29:56;;;;;;;;;26.50;24.00;;;;;;;;5015299;28;45531;-87
2021/09/04 10:32:21;;;;;;;;;26.25;24.75;;;;;;;;5017346;28;45439;-89
2021/09/04 10:34:47;;;;;;;;;22.67;17.67;;;;;;;;5019012;28;45405;-88
2021/09/04 10:37:15;;;;;;;;;22.00;22.00;;;;;;;;5018695;28;47370;-88
2021/09/04 10:39:45;;;;;;;;;24.50;21.00;;;;;;;;5019765;28;45591;-88
2021/09/04 10:42:11;;;;;;;;;26.75;23.00;;;;;;;;5019573;28;45422;-90
2021/09/04 10:44:39;;;;;;;;;29.50;26.25;;;;;;;;5020461;28;45399;-89
2021/09/04 10:47:07;;;;;;;;;31.25;28.25;;;;;;;;5012876;28;48229;-83
2021/09/04 10:49:40;;;;;;;;;26.75;24.75;;;;;;;;5017452;28;45799;-84
2021/09/04 10:52:06;;;;;;;;;32.50;27.25;;;;;;;;5017817;28;45409;-84
2021/09/04 10:54:41;;;;;;;;;21.50;19.00;;;;;;;;5019483;28;45350;-84
2021/09/04 10:57:17;;;;;;;;;15.75;13.00;;;;;;;;5005391;28;47129;-84
2021/09/04 10:59:58;;;;;;;;;16.75;16.00;;;;;;;;5018290;28;45277;-84
2021/09/04 11:02:37;;;;;;;;;20.00;18.25;;;;;;;;5017489;28;45409;-84
2021/09/04 11:05:22;;;;;;;;;15.00;14.25;;;;;;;;5016132;28;45328;-84
2021/09/04 11:07:47;;;;;;;;;26.25;22.75;;;;;;;;5016962;28;46595;-84
2021/09/04 11:10:25;;;;;;;;;14.00;12.00;;;;;;;;5017565;28;45239;-84
2021/09/04 11:13:08;;;;;;;;;13.00;12.00;;;;;;;;5015062;28;45563;-84
2021/09/04 11:15:34;;;;;;;;;14.50;12.50;;;;;;;;5014436;28;46211;-85
2021/09/04 11:17:59;;;;;;;;;20.75;19.00;;;;;;;;5002383;28;45614;-84
2021/09/04 11:20:24;;;;;;;;;15.50;13.50;;;;;;;;5015250;28;45365;-85
2021/09/04 11:22:50;;;;;;;;;13.50;12.50;;;;;;;;5013188;28;45379;-85
2021/09/04 11:25:16;;;;;;;;;13.75;13.00;;;;;;;;4998494;28;46117;-85
2021/09/04 11:27:44;;;;;;;;;17.25;15.75;;;;;;;;5004605;28;46250;-84
2021/09/04 11:30:09;;;;;;;;;14.50;14.50;;;;;;;;5020342;28;45778;-84
2021/09/04 11:32:35;;;;;;;;;14.00;13.00;;;;;;;;5015203;28;45887;-85
2021/09/04 11:35:01;;;;;;;;;12.50;12.50;;;;;;;;5017343;28;45250;-84
2021/09/04 11:37:30;;;;;;;;;15.00;13.50;;;;;;;;5015333;28;46120;-84
2021/09/04 11:40:06;;;;;;;;;11.75;11.25;;;;;;;;5017613;28;45620;-84
2021/09/04 11:42:33;;;;;;;;;13.25;13.25;;;;;;;;5001171;28;45467;-85
2021/09/04 11:45:06;;;;;;;;;12.00;11.75;;;;;;;;4999522;28;45487;-84
2021/09/04 11:47:33;;;;;;;;;12.25;11.75;;;;;;;;5007802;28;45459;-84
2021/09/04 11:49:59;;;;;;;;;11.75;11.75;;;;;;;;5017415;28;45594;-85
2021/09/04 11:52:29;;;;;;;;;14.25;12.75;;;;;;;;5016686;28;45305;-85
2021/09/04 11:55:06;;;;;;;;;13.25;11.75;;;;;;;;5017497;28;45427;-84
2021/09/04 11:57:32;;;;;;;;;13.50;11.50;;;;;;;;5000471;28;47250;-85
2021/09/04 11:59:58;;;;;;;;;13.50;13.50;;;;;;;;4998853;28;45682;-84
2021/09/04 12:02:23;;;;;;;;;11.25;10.25;;;;;;;;5001188;28;45416;-84
2021/09/04 12:04:49;;;;;;;;;10.50;10.50;;;;;;;;5018496;28;45408;-85
2021/09/04 12:07:14;;;;;;;;;11.75;11.00;;;;;;;;4998698;28;48453;-85
2021/09/04 12:09:39;;;;;;;;;12.50;10.00;;;;;;;;5016927;28;45379;-84
2021/09/04 12:12:05;;;;;;;;;13.00;10.50;;;;;;;;5017398;28;45431;-85
2021/09/04 12:14:31;;;;;;;;;14.25;12.00;;;;;;;;5026153;28;45272;-84
2021/09/04 12:16:56;;;;;;;;;9.75;9.25;;;;;;;;5021766;28;45673;-85
2021/09/04 12:19:22;;;;;;;;;13.00;10.25;;;;;;;;5016068;28;45775;-84
2021/09/04 12:21:52;;;;;;;;;7.00;7.00;;;;;;;;5003672;28;45392;-85
2021/09/04 12:24:18;;;;;;;;;13.00;13.00;;;;;;;;5019963;28;45388;-85
2021/09/04 12:26:52;;;;;;;;;17.50;15.00;;;;;;;;5018217;28;45518;-84
2021/09/04 12:29:17;;;;;;;;;15.25;14.50;;;;;;;;5021192;28;44750;-84
2021/09/04 12:31:44;;;;;;;;;15.00;13.33;;;;;;;;5035154;28;44785;-83
2021/09/04 12:34:16;;;;;;;;;14.25;12.50;;;;;;;;5017718;28;45400;-83
2021/09/04 12:36:42;;;;;;;;;14.50;14.50;;;;;;;;5007647;28;47200;-82
2021/09/04 12:39:13;;;;;;;;;9.25;9.25;;;;;;;;4996311;28;45416;-84
2021/09/04 12:41:38;;;;;;;;;13.50;12.75;;;;;;;;5014335;28;45500;-84
2021/09/04 12:44:05;;;;;;;;;9.50;9.50;;;;;;;;5015247;28;45356;-82
2021/09/04 12:46:36;;;;;;;;;12.25;12.25;;;;;;;;5013008;28;45658;-83
2021/09/04 12:49:20;;;;;;;;;9.50;8.25;;;;;;;;5007442;28;45326;-84
2021/09/04 12:52:04;;;;;;;;;10.00;9.25;;;;;;;;5017700;28;45514;-84
2021/09/04 12:54:29;;;;;;;;;12.00;10.25;;;;;;;;5001912;28;45532;-82
2021/09/04 12:57:02;;;;;;;;;16.00;14.00;;;;;;;;5000856;28;46991;-83
2021/09/04 12:59:59;;;;;;;;;13.50;11.50;;;;;;;;5021930;28;45502;-82
2021/09/04 13:02:25;;;;;;;;;12.75;12.75;;;;;;;;4994052;28;45301;-82
2021/09/04 13:05:00;;;;;;;;;15.50;12.50;;;;;;;;5001896;28;45511;-83
2021/09/04 13:07:26;;;;;;;;;17.25;13.75;;;;;;;;5016015;28;46451;-83
2021/09/04 13:09:51;;;;;;;;;12.50;12.50;;;;;;;;5021846;28;45294;-84
2021/09/04 13:12:16;;;;;;;;;12.25;12.25;;;;;;;;5008235;28;45506;-83
2021/09/04 13:14:42;;;;;;;;;18.50;15.50;;;;;;;;5022202;28;45470;-85
2021/09/04 13:17:08;;;;;;;;;14.00;12.00;;;;;;;;5016150;28;45373;-83
2021/09/04 13:19:33;;;;;;;;;14.00;12.50;;;;;;;;5014511;28;45757;-83
2021/09/04 13:21:58;;;;;;;;;10.25;10.25;;;;;;;;5014982;28;45515;-84
2021/09/04 13:24:23;;;;;;;;;12.00;11.25;;;;;;;;5018320;28;45527;-86
2021/09/04 13:26:49;;;;;;;;;12.75;12.75;;;;;;;;5014986;28;45407;-85
2021/09/04 13:29:19;;;;;;;;;10.50;10.50;;;;;;;;5019503;28;45362;-86
2021/09/04 13:31:48;;;;;;;;;10.25;9.50;;;;;;;;5017498;28;45426;-88
2021/09/04 13:34:14;;;;;;;;;10.50;9.75;;;;;;;;5019852;28;45447;-86
2021/09/04 13:36:39;;;;;;;;;9.00;9.00;;;;;;;;5018663;28;45436;-86
2021/09/04 13:39:05;;;;;;;;;16.00;14.50;;;;;;;;5020301;28;45416;-86
2021/09/04 13:41:30;;;;;;;;;13.00;12.50;;;;;;;;5014474;28;45701;-86
2021/09/04 13:43:55;;;;;;;;;13.67;13.00;;;;;;;;5020251;28;45880;-84
2021/09/04 13:46:20;;;;;;;;;15.33;15.00;;;;;;;;5023317;28;45450;-84
2021/09/04 13:48:46;;;;;;;;;11.75;11.00;;;;;;;;5028138;28;45505;-83
2021/09/04 13:51:11;;;;;;;;;18.00;13.50;;;;;;;;5021890;28;45905;-83
2021/09/04 13:53:36;;;;;;;;;20.00;16.00;;;;;;;;5025325;28;45364;-83
2021/09/04 13:56:02;;;;;;;;;16.67;14.67;;;;;;;;5019137;28;47521;-83
2021/09/04 13:58:27;;;;;;;;;14.50;14.50;;;;;;;;5016841;28;45555;-82
2021/09/04 14:00:52;;;;;;;;;14.00;14.00;;;;;;;;5016176;28;45478;-84
2021/09/04 14:03:18;;;;;;;;;19.75;15.75;;;;;;;;5019780;28;45473;-84
2021/09/04 14:05:43;;;;;;;;;16.00;15.33;;;;;;;;5020059;28;46081;-84
2021/09/04 14:08:08;;;;;;;;;25.75;19.25;;;;;;;;5017435;28;45504;-86
2021/09/04 14:10:34;;;;;;;;;17.50;16.25;;;;;;;;5018074;28;46054;-86
2021/09/04 14:12:59;;;;;;;;;20.33;16.00;;;;;;;;5019734;28;45976;-86
2021/09/04 14:15:24;;;;;;;;;14.00;13.25;;;;;;;;5018989;28;45489;-89